Time;durP1;ratioP1;P1;durP2;ratioP2;P2;SDS_P1;SDS_P2;PMS_P1;PMS_P2;Temp;Humidity;BMP_temperature;BMP_pressure;BME280_temperature;BME280_humidity;BME280_pressure;Samples;Min_cycle;Max_cycle;Signal;HPM_P1;HPM_P2
2021/04/03 00:00:00;;;;;;;6.65;4.53;;;;;;;6.61;62.10;96385.63;5110469;28;20521;-67
2021/04/03 00:02:27;;;;;;;7.18;4.60;;;;;;;6.54;62.25;96386.78;5110049;28;20051;-67
2021/04/03 00:04:53;;;;;;;7.88;4.88;;;;;;;6.52;62.87;96386.28;5110117;28;20039;-67
2021/04/03 00:07:19;;;;;;;9.02;5.22;;;;;;;6.40;63.15;96380.47;5109942;28;20506;-67
2021/04/03 00:09:45;;;;;;;7.55;4.50;;;;;;;6.42;63.29;96388.28;5109774;28;20043;-67
2021/04/03 00:12:11;;;;;;;6.45;4.70;;;;;;;6.44;63.19;96386.91;5110304;28;20407;-68
2021/04/03 00:14:37;;;;;;;6.88;4.57;;;;;;;6.50;63.03;96385.75;5109554;28;20388;-67
2021/04/03 00:17:04;;;;;;;8.20;4.38;;;;;;;6.51;63.14;96376.53;5110357;28;20047;-68
2021/04/03 00:19:30;;;;;;;9.52;4.97;;;;;;;6.49;63.39;96373.31;5109429;28;20046;-67
2021/04/03 00:21:57;;;;;;;8.60;5.13;;;;;;;6.43;63.58;96374.50;5110576;28;20036;-67
2021/04/03 00:24:23;;;;;;;7.25;4.80;;;;;;;6.50;63.77;96372.22;5109136;28;20051;-67
2021/04/03 00:26:49;;;;;;;6.75;4.55;;;;;;;6.58;63.03;96376.19;5109681;28;20609;-67
2021/04/03 00:29:14;;;;;;;7.32;4.40;;;;;;;6.64;63.02;96366.09;5109548;28;20118;-67
2021/04/03 00:31:40;;;;;;;6.35;4.40;;;;;;;6.67;62.76;96366.31;5111045;28;20035;-68
2021/04/03 00:34:07;;;;;;;7.55;4.70;;;;;;;6.78;63.01;96369.66;5113592;28;20047;-69
2021/04/03 00:36:34;;;;;;;9.02;5.15;;;;;;;6.91;62.85;96366.22;5113403;28;20063;-67
2021/04/03 00:39:00;;;;;;;8.35;5.05;;;;;;;6.98;62.12;96368.56;5114453;28;20039;-67
2021/04/03 00:41:26;;;;;;;9.00;5.75;;;;;;;7.04;62.05;96351.94;5112519;28;20559;-67
2021/04/03 00:43:52;;;;;;;8.02;4.88;;;;;;;7.03;61.73;96361.16;5114389;28;20043;-67
2021/04/03 00:46:18;;;;;;;9.38;5.28;;;;;;;6.93;61.81;96355.91;5112710;28;20110;-67
2021/04/03 00:48:45;;;;;;;7.30;4.70;;;;;;;6.88;61.80;96363.31;5114090;28;20075;-67
2021/04/03 00:51:13;;;;;;;8.57;5.28;;;;;;;6.76;62.31;96358.34;5113584;28;20042;-67
2021/04/03 00:53:39;;;;;;;6.95;4.78;;;;;;;6.76;62.66;96359.13;5113537;28;20040;-67
2021/04/03 00:56:06;;;;;;;7.55;4.97;;;;;;;6.77;62.50;96368.06;5113237;28;20035;-67
2021/04/03 00:58:32;;;;;;;7.82;5.05;;;;;;;6.81;62.64;96371.81;5112436;28;20093;-67
2021/04/03 01:01:00;;;;;;;13.00;5.10;;;;;;;6.77;62.71;96371.56;5113796;28;20051;-67
2021/04/03 01:03:26;;;;;;;7.25;4.90;;;;;;;6.78;63.18;96375.06;5112978;28;20174;-67
2021/04/03 01:05:52;;;;;;;9.48;5.28;;;;;;;6.84;63.31;96373.09;5113913;28;20051;-67
2021/04/03 01:08:19;;;;;;;7.32;4.97;;;;;;;6.92;63.80;96384.06;5112378;28;20085;-67
2021/04/03 01:10:49;;;;;;;8.35;5.30;;;;;;;6.97;63.67;96377.78;5113796;28;20043;-67
2021/04/03 01:13:36;;;;;;;7.57;4.88;;;;;;;6.96;62.88;96382.41;5112315;28;20036;-67
2021/04/03 01:16:08;;;;;;;6.60;4.70;;;;;;;6.99;62.79;96392.63;5112598;28;20616;-67
2021/04/03 01:18:45;;;;;;;8.63;4.97;;;;;;;6.91;63.20;96390.59;5113549;28;20410;-67
2021/04/03 01:21:18;;;;;;;8.77;5.03;;;;;;;6.89;63.20;96392.81;5111856;28;20047;-67
2021/04/03 01:24:21;;;;;;;7.57;5.10;;;;;;;6.86;63.41;96395.28;5093312;28;20039;-67
2021/04/03 01:27:02;;;;;;;7.63;5.03;;;;;;;6.84;63.22;96392.88;5076698;28;20032;-67
2021/04/03 01:29:48;;;;;;;7.93;5.25;;;;;;;6.78;63.78;96396.72;5112545;28;20039;-68
2021/04/03 01:32:17;;;;;;;7.97;4.90;;;;;;;6.76;63.65;96404.34;5112783;28;20509;-66
2021/04/03 01:34:45;;;;;;;8.93;5.78;;;;;;;6.76;63.87;96399.75;5112130;28;20489;-67
2021/04/03 01:37:14;;;;;;;10.25;5.18;;;;;;;6.71;63.89;96407.13;5112859;28;20619;-67
2021/04/03 01:39:44;;;;;;;11.70;5.82;;;;;;;6.63;64.65;96399.66;5112085;28;20051;-67
2021/04/03 01:42:17;;;;;;;10.00;6.13;;;;;;;6.63;64.32;96411.31;5112385;28;20571;-67
2021/04/03 01:44:48;;;;;;;8.90;5.40;;;;;;;6.69;64.98;96410.13;5111798;28;20048;-67
2021/04/03 01:47:17;;;;;;;8.50;5.53;;;;;;;6.72;64.41;96414.13;5111777;28;20035;-67
2021/04/03 01:49:43;;;;;;;7.80;5.25;;;;;;;6.71;64.27;96409.84;5112776;28;20054;-67
2021/04/03 01:52:10;;;;;;;9.18;5.30;;;;;;;6.75;63.84;96413.56;5111319;28;20039;-67
2021/04/03 01:54:38;;;;;;;9.07;5.15;;;;;;;6.76;63.42;96415.16;5113057;28;20096;-67
2021/04/03 01:57:05;;;;;;;7.28;5.10;;;;;;;6.73;63.37;96413.03;5110679;28;20050;-67
2021/04/03 01:59:31;;;;;;;8.05;4.90;;;;;;;6.76;63.85;96412.47;5133611;27;20099;-67
2021/04/03 02:01:58;;;;;;;7.15;4.88;;;;;;;6.78;63.84;96419.19;5132074;27;20039;-67
2021/04/03 02:04:26;;;;;;;7.60;5.07;;;;;;;6.80;63.70;96424.31;5132543;27;20043;-67
2021/04/03 02:06:53;;;;;;;8.40;5.45;;;;;;;6.77;63.27;96422.19;5132593;27;20047;-67
2021/04/03 02:09:20;;;;;;;11.35;4.90;;;;;;;6.76;62.97;96415.97;5132130;27;20046;-67
2021/04/03 02:11:49;;;;;;;9.40;5.28;;;;;;;6.74;61.86;96411.97;5132821;27;20084;-67
2021/04/03 02:14:16;;;;;;;9.32;5.65;;;;;;;6.72;61.58;96419.56;5131766;27;20050;-67
2021/04/03 02:16:43;;;;;;;8.85;5.30;;;;;;;6.71;61.54;96421.47;5133009;27;20044;-67
2021/04/03 02:19:12;;;;;;;10.30;6.18;;;;;;;6.65;61.13;96413.69;5131366;27;20035;-66
2021/04/03 02:21:40;;;;;;;11.85;5.75;;;;;;;6.60;61.04;96424.59;5127819;27;20069;-67
2021/04/03 02:24:07;;;;;;;11.02;5.57;;;;;;;6.42;59.89;96416.16;5110709;28;20043;-67
2021/04/03 02:26:34;;;;;;;10.05;5.32;;;;;;;6.37;60.58;96404.56;5111767;28;20418;-67
2021/04/03 02:29:01;;;;;;;11.30;5.50;;;;;;;6.35;60.30;96415.69;5110996;28;20142;-67
2021/04/03 02:31:28;;;;;;;10.15;5.20;;;;;;;6.31;60.11;96403.84;5111541;28;20055;-67
2021/04/03 02:33:54;;;;;;;11.05;5.30;;;;;;;6.29;60.52;96406.03;5111793;28;20048;-67
2021/04/03 02:36:20;;;;;;;9.60;5.63;;;;;;;6.25;60.30;96405.00;5110732;28;20055;-67
2021/04/03 02:38:48;;;;;;;10.55;5.47;;;;;;;6.16;60.84;96401.31;5111841;28;20039;-67
2021/04/03 02:41:15;;;;;;;8.52;5.15;;;;;;;6.07;60.81;96408.47;5110209;28;20560;-66
2021/04/03 02:43:49;;;;;;;10.07;5.25;;;;;;;6.05;60.26;96411.44;5112040;28;20073;-67
2021/04/03 02:46:22;;;;;;;11.77;5.95;;;;;;;6.03;60.66;96415.53;5110269;28;20039;-67
2021/04/03 02:48:51;;;;;;;9.25;4.90;;;;;;;5.96;60.72;96408.59;5111732;28;20459;-67
2021/04/03 02:51:26;;;;;;;9.82;5.53;;;;;;;5.97;61.08;96410.19;5110492;28;20100;-67
2021/04/03 02:53:54;;;;;;;8.48;5.47;;;;;;;5.94;61.63;96410.75;5111143;28;20047;-67
2021/04/03 02:56:21;;;;;;;9.07;5.38;;;;;;;5.89;61.12;96409.97;5109869;28;20052;-67
2021/04/03 02:58:48;;;;;;;8.95;5.47;;;;;;;5.79;61.34;96408.16;5110076;28;20047;-67
2021/04/03 03:01:16;;;;;;;13.15;5.45;;;;;;;5.79;61.62;96410.06;5131636;27;20043;-66
2021/04/03 03:03:42;;;;;;;11.00;5.47;;;;;;;5.69;61.46;96410.97;5130999;27;20039;-67
2021/04/03 03:06:11;;;;;;;9.63;5.25;;;;;;;5.67;60.87;96410.47;5131650;27;20077;-67
2021/04/03 03:08:39;;;;;;;10.05;5.95;;;;;;;5.64;61.19;96416.44;5130844;27;20406;-67
2021/04/03 03:11:07;;;;;;;10.82;6.15;;;;;;;5.62;60.82;96413.22;5131439;27;20039;-67
2021/04/03 03:13:35;;;;;;;9.20;5.40;;;;;;;5.50;60.52;96417.09;5131183;27;20050;-67
2021/04/03 03:16:01;;;;;;;9.63;5.15;;;;;;;5.59;60.67;96419.19;5131287;27;20096;-67
2021/04/03 03:18:28;;;;;;;12.23;5.28;;;;;;;5.57;60.23;96415.97;5131553;27;20047;-67
2021/04/03 03:20:55;;;;;;;9.30;5.18;;;;;;;5.65;60.15;96418.06;5130891;27;20049;-67
2021/04/03 03:23:22;;;;;;;8.50;4.47;;;;;;;5.68;60.21;96415.56;5111224;28;20054;-67
2021/04/03 03:25:48;;;;;;;9.93;4.90;;;;;;;5.74;59.85;96413.63;5109930;28;20043;-67
2021/04/03 03:28:16;;;;;;;13.15;5.00;;;;;;;5.79;58.71;96418.19;5110202;28;20043;-67
2021/04/03 03:30:42;;;;;;;10.90;4.70;;;;;;;5.74;59.04;96416.31;5110082;28;20032;-67
2021/04/03 03:33:08;;;;;;;7.65;4.88;;;;;;;5.69;58.62;96414.50;5110682;28;20039;-67
2021/04/03 03:35:34;;;;;;;9.82;4.78;;;;;;;5.70;58.74;96418.81;5110255;28;20046;-67
2021/04/03 03:38:00;;;;;;;9.90;4.15;;;;;;;5.74;58.63;96416.31;5110659;28;20190;-67
2021/04/03 03:40:26;;;;;;;11.80;5.30;;;;;;;5.73;58.24;96415.53;5110070;28;20078;-67
2021/04/03 03:42:53;;;;;;;9.55;4.60;;;;;;;5.72;58.43;96418.53;5110286;28;20043;-67
2021/04/03 03:45:21;;;;;;;8.82;4.72;;;;;;;5.66;58.38;96416.97;5110157;28;20043;-67
2021/04/03 03:47:47;;;;;;;10.73;4.47;;;;;;;5.75;58.51;96428.78;5109863;28;20066;-67
2021/04/03 03:50:13;;;;;;;10.05;4.55;;;;;;;5.85;58.78;96420.56;5107741;28;20491;-67
2021/04/03 03:52:39;;;;;;;8.43;4.70;;;;;;;5.82;58.24;96418.41;5109562;28;20046;-67
2021/04/03 03:55:06;;;;;;;12.82;4.20;;;;;;;5.86;58.02;96435.69;5110568;28;20071;-67
2021/04/03 03:57:33;;;;;;;9.32;4.28;;;;;;;5.88;57.51;96427.28;5109652;28;20104;-67
2021/04/03 03:59:59;;;;;;;7.35;4.10;;;;;;;5.87;57.56;96433.78;5110552;28;20556;-67
2021/04/03 04:02:26;;;;;;;8.05;4.10;;;;;;;5.88;57.09;96435.38;5109661;28;20050;-67
2021/04/03 04:04:52;;;;;;;10.52;4.03;;;;;;;5.85;56.05;96422.47;5110260;28;20054;-67
2021/04/03 04:07:18;;;;;;;6.93;3.50;;;;;;;5.88;55.96;96433.50;5112191;28;20040;-67
2021/04/03 04:09:44;;;;;;;7.38;3.50;;;;;;;5.84;55.76;96431.63;5113856;28;20065;-67
2021/04/03 04:12:10;;;;;;;6.88;3.13;;;;;;;5.85;55.44;96433.28;5114407;28;20088;-67
2021/04/03 04:14:37;;;;;;;8.05;3.35;;;;;;;5.81;55.75;96438.44;5113661;28;20062;-67
2021/04/03 04:17:04;;;;;;;5.80;3.38;;;;;;;5.77;55.65;96437.38;5114517;28;20153;-67
2021/04/03 04:19:31;;;;;;;6.15;2.80;;;;;;;5.72;55.24;96445.53;5113339;28;20051;-67
2021/04/03 04:21:57;;;;;;;6.88;3.53;;;;;;;5.68;55.71;96439.09;5101995;28;20044;-67
2021/04/03 04:24:23;;;;;;;7.13;3.03;;;;;;;5.65;55.68;96445.06;5113165;28;20039;-66
2021/04/03 04:26:49;;;;;;;8.40;3.25;;;;;;;5.66;56.37;96452.09;5113945;28;20039;-67
2021/04/03 04:29:15;;;;;;;9.90;3.55;;;;;;;5.58;55.72;96445.38;5113489;28;20139;-67
2021/04/03 04:31:41;;;;;;;6.80;3.40;;;;;;;5.58;56.06;96444.56;5113885;28;20036;-67
2021/04/03 04:34:07;;;;;;;8.80;3.83;;;;;;;5.61;56.39;96450.22;5113865;28;20673;-67
2021/04/03 04:36:34;;;;;;;9.85;4.10;;;;;;;5.53;56.10;96463.53;5114547;28;20050;-67
2021/04/03 04:39:00;;;;;;;9.75;3.72;;;;;;;5.52;56.73;96461.91;5114551;28;20043;-67
2021/04/03 04:41:26;;;;;;;11.05;4.30;;;;;;;5.61;57.18;96461.03;5114242;28;20057;-67
2021/04/03 04:43:52;;;;;;;7.88;3.90;;;;;;;5.57;56.86;96467.28;5114171;28;20494;-67
2021/04/03 04:46:18;;;;;;;7.85;3.78;;;;;;;5.55;56.71;96466.78;5113891;28;20055;-67
2021/04/03 04:48:44;;;;;;;12.85;4.80;;;;;;;5.55;57.14;96477.56;5113991;28;20044;-67
2021/04/03 04:51:10;;;;;;;9.20;4.22;;;;;;;5.61;57.13;96484.53;5112583;28;20067;-66
2021/04/03 04:53:37;;;;;;;10.00;4.10;;;;;;;5.55;57.10;96494.59;5114194;28;20482;-66
2021/04/03 04:56:04;;;;;;;11.23;4.13;;;;;;;5.52;57.01;96497.84;5113701;28;20418;-66
2021/04/03 04:58:30;;;;;;;13.85;4.22;;;;;;;5.55;57.23;96505.38;5113386;28;20050;-66
2021/04/03 05:00:56;;;;;;;11.05;3.90;;;;;;;5.59;57.85;96502.94;5113697;28;20040;-66
2021/04/03 05:03:22;;;;;;;9.85;4.28;;;;;;;5.60;57.59;96508.06;5112435;28;20079;-66
2021/04/03 05:05:48;;;;;;;9.57;4.28;;;;;;;5.61;58.69;96509.66;5114050;28;20043;-66
2021/04/03 05:08:14;;;;;;;13.02;4.53;;;;;;;5.55;57.73;96512.69;5112262;28;20097;-66
2021/04/03 05:10:40;;;;;;;11.98;4.30;;;;;;;5.49;57.53;96518.13;5114005;28;20067;-68
2021/04/03 05:13:06;;;;;;;10.13;4.07;;;;;;;5.43;57.57;96523.84;5112219;28;20410;-67
2021/04/03 05:15:32;;;;;;;10.57;3.95;;;;;;;5.32;58.46;96525.78;5113459;28;20059;-68
2021/04/03 05:17:58;;;;;;;10.95;4.35;;;;;;;5.31;58.75;96532.28;5111760;28;20040;-66
2021/04/03 05:20:25;;;;;;;9.38;4.32;;;;;;;5.34;59.12;96539.84;5112479;28;20067;-68
2021/04/03 05:22:51;;;;;;;7.45;4.00;;;;;;;5.35;59.15;96544.13;5113034;28;20051;-68
2021/04/03 05:25:17;;;;;;;10.25;4.05;;;;;;;5.32;58.64;96546.59;5111853;28;20047;-66
2021/04/03 05:27:43;;;;;;;13.68;4.53;;;;;;;5.26;58.72;96540.41;5113315;28;20031;-68
2021/04/03 05:30:10;;;;;;;12.43;4.53;;;;;;;5.22;59.08;96550.19;5111742;28;20110;-68
2021/04/03 05:32:36;;;;;;;9.45;4.70;;;;;;;5.23;59.06;96552.59;5113366;28;20040;-68
2021/04/03 05:35:03;;;;;;;8.55;4.20;;;;;;;5.28;58.84;96550.94;5111755;28;20559;-69
2021/04/03 05:37:29;;;;;;;12.43;4.20;;;;;;;5.24;58.79;96551.50;5113394;28;20070;-68
2021/04/03 05:39:55;;;;;;;7.45;3.72;;;;;;;5.26;58.35;96550.41;5112220;28;20507;-66
2021/04/03 05:42:22;;;;;;;9.90;3.63;;;;;;;5.29;58.31;96550.66;5112463;28;20051;-66
2021/04/03 05:44:49;;;;;;;11.02;3.70;;;;;;;5.34;57.87;96564.13;5112441;28;20043;-67
2021/04/03 05:47:16;;;;;;;10.02;3.50;;;;;;;5.33;57.75;96551.72;5111810;28;20402;-66
2021/04/03 05:49:43;;;;;;;7.32;3.30;;;;;;;5.39;57.58;96558.72;5112373;28;20422;-67
2021/04/03 05:52:10;;;;;;;9.23;3.42;;;;;;;5.40;56.93;96563.00;5111412;28;20044;-67
2021/04/03 05:54:38;;;;;;;7.38;3.53;;;;;;;5.41;57.39;96561.91;5112888;28;20047;-66
2021/04/03 05:57:05;;;;;;;10.02;3.20;;;;;;;5.36;56.97;96566.56;5111321;28;20039;-67
2021/04/03 05:59:31;;;;;;;7.97;3.65;;;;;;;5.36;57.69;96571.94;5112916;28;20070;-67
2021/04/03 06:01:58;;;;;;;8.38;4.03;;;;;;;5.35;57.86;96571.16;5111797;28;20048;-67
2021/04/03 06:04:24;;;;;;;8.05;3.47;;;;;;;5.31;57.47;96575.47;5112036;28;20062;-66
2021/04/03 06:06:51;;;;;;;7.60;3.47;;;;;;;5.33;57.15;96581.44;5112033;28;20047;-67
2021/04/03 06:09:17;;;;;;;7.63;3.10;;;;;;;5.38;57.46;96586.81;5111667;28;20552;-67
2021/04/03 06:11:45;;;;;;;7.82;3.30;;;;;;;5.34;56.24;96596.53;5112213;28;20044;-67
2021/04/03 06:14:11;;;;;;;9.35;3.50;;;;;;;5.25;56.95;96595.50;5111247;28;20062;-67
2021/04/03 06:16:38;;;;;;;7.90;3.15;;;;;;;5.22;57.41;96596.06;5112519;28;20040;-67
2021/04/03 06:19:14;;;;;;;9.00;3.03;;;;;;;5.21;57.95;96597.13;5110805;28;20043;-67
2021/04/03 06:21:42;;;;;;;8.63;2.72;;;;;;;5.24;57.99;96596.59;5112351;28;20120;-67
2021/04/03 06:24:23;;;;;;;11.60;3.50;;;;;;;5.26;58.48;96599.81;5110580;28;20039;-67
2021/04/03 06:27:07;;;;;;;6.72;3.60;;;;;;;5.31;57.50;96607.88;5111701;28;20050;-66
2021/04/03 06:29:39;;;;;;;10.55;3.35;;;;;;;5.22;57.61;96604.16;5111506;28;20036;-67
2021/04/03 06:32:08;;;;;;;10.75;3.17;;;;;;;5.29;58.57;96604.66;5110860;28;20058;-67
2021/04/03 06:34:37;;;;;;;10.05;3.75;;;;;;;5.30;58.09;96605.47;5112034;28;20061;-67
2021/04/03 06:37:06;;;;;;;10.18;3.50;;;;;;;5.33;57.58;96608.44;5110514;28;20127;-67
2021/04/03 06:39:51;;;;;;;6.50;3.35;;;;;;;5.25;56.75;96609.00;5112185;28;20067;-67
2021/04/03 06:42:36;;;;;;;5.88;2.75;;;;;;;5.15;56.84;96609.03;5110785;28;20480;-67
2021/04/03 06:45:18;;;;;;;11.40;3.25;;;;;;;5.09;57.91;96615.56;5110707;28;20636;-67
2021/04/03 06:47:46;;;;;;;7.10;2.95;;;;;;;5.15;58.24;96619.84;5111866;28;20052;-66
2021/04/03 06:50:13;;;;;;;8.40;3.65;;;;;;;5.23;58.29;96614.69;5110098;28;20579;-67
2021/04/03 06:52:40;;;;;;;6.57;3.40;;;;;;;5.29;58.04;96615.47;5111863;28;20039;-66
2021/04/03 06:55:08;;;;;;;9.02;4.13;;;;;;;5.35;56.86;96632.44;5110303;28;20449;-67
2021/04/03 06:57:36;;;;;;;7.38;3.20;;;;;;;5.37;58.34;96631.06;5111493;28;20514;-67
2021/04/03 07:00:03;;;;;;;7.63;3.38;;;;;;;5.41;57.36;96634.03;5110320;28;20486;-67
2021/04/03 07:02:31;;;;;;;8.38;2.90;;;;;;;5.40;56.76;96627.84;5111264;28;20495;-66
2021/04/03 07:05:00;;;;;;;8.55;3.03;;;;;;;5.40;57.37;96644.03;5111014;28;20651;-67
2021/04/03 07:07:29;;;;;;;6.70;3.05;;;;;;;5.49;56.84;96636.16;5110278;28;20078;-67
2021/04/03 07:09:56;;;;;;;4.78;2.83;;;;;;;5.53;56.19;96639.09;5111483;28;20392;-66
2021/04/03 07:12:23;;;;;;;9.40;2.97;;;;;;;5.72;56.30;96642.78;5109738;28;20047;-67
2021/04/03 07:14:49;;;;;;;6.60;2.83;;;;;;;5.90;55.87;96642.13;5111629;28;20047;-67
2021/04/03 07:17:17;;;;;;;7.40;3.00;;;;;;;6.15;54.92;96654.66;5109893;28;20040;-66
2021/04/03 07:19:46;;;;;;;4.97;2.72;;;;;;;6.37;53.49;96645.31;5111175;28;20043;-66
2021/04/03 07:22:13;;;;;;;8.43;2.88;;;;;;;6.71;53.78;96645.28;5109982;28;20043;-66
2021/04/03 07:24:40;;;;;;;5.60;3.05;;;;;;;7.86;50.53;96643.34;5110665;28;20039;-67
2021/04/03 07:27:07;;;;;;;6.20;2.60;;;;;;;8.99;47.80;96645.84;5109971;28;20410;-68
2021/04/03 07:29:44;;;;;;;6.65;2.63;;;;;;;9.20;45.28;96648.16;5110640;28;20048;-66
2021/04/03 07:32:29;;;;;;;5.55;2.70;;;;;;;9.01;46.81;96653.69;5110460;28;20043;-66
2021/04/03 07:34:55;;;;;;;5.13;2.63;;;;;;;9.28;45.69;96650.16;5110108;28;20042;-66
2021/04/03 07:37:31;;;;;;;6.18;2.50;;;;;;;9.44;44.64;96661.53;5110633;28;20047;-66
2021/04/03 07:39:59;;;;;;;5.85;2.67;;;;;;;10.39;43.91;96651.59;5110162;28;20051;-66
2021/04/03 07:42:36;;;;;;;7.70;2.53;;;;;;;11.27;39.91;96656.38;5109711;28;20038;-66
2021/04/03 07:45:04;;;;;;;5.45;2.58;;;;;;;11.17;40.06;96654.72;5109895;28;20457;-67
2021/04/03 07:47:46;;;;;;;6.95;2.20;;;;;;;11.55;39.84;96660.50;5110083;28;20092;-66
2021/04/03 07:50:12;;;;;;;5.30;2.47;;;;;;;11.67;38.14;96679.78;5110491;28;20048;-67
2021/04/03 07:52:54;;;;;;;5.78;2.30;;;;;;;12.21;36.98;96664.00;5109577;28;20567;-67
2021/04/03 07:55:30;;;;;;;4.03;2.28;;;;;;;12.87;36.30;96672.00;5110409;28;20044;-66
2021/04/03 07:58:24;;;;;;;7.18;2.60;;;;;;;13.43;36.58;96667.34;5110046;28;20403;-68
2021/04/03 08:00:52;;;;;;;;;;;;;;;13.21;34.55;96664.84;5110366;28;20039;-67
2021/04/03 08:03:22;;;;;;;5.95;2.70;;;;;;;13.62;36.05;96664.19;5110342;28;19926;-67
2021/04/03 08:05:50;;;;;;;8.98;2.97;;;;;;;13.55;34.38;96669.38;5109475;28;20088;-67
2021/04/03 08:08:19;;;;;;;4.65;2.78;;;;;;;12.70;35.96;96666.56;5110387;28;20042;-67
2021/04/03 08:10:47;;;;;;;4.65;2.25;;;;;;;12.73;36.11;96674.91;5109514;28;20035;-66
2021/04/03 08:13:17;;;;;;;6.28;2.65;;;;;;;13.54;36.50;96676.78;5110167;28;20040;-67
2021/04/03 08:15:48;;;;;;;4.35;2.20;;;;;;;13.57;34.31;96684.34;5109779;28;20035;-67
2021/04/03 08:18:14;;;;;;;5.25;2.72;;;;;;;12.67;35.10;96689.06;5109735;28;20519;-67
2021/04/03 08:20:50;;;;;;;6.70;2.58;;;;;;;11.69;37.65;96688.47;5110098;28;20490;-67
2021/04/03 08:23:16;;;;;;;7.18;2.72;;;;;;;11.92;38.68;96685.66;5109134;28;20035;-67
2021/04/03 08:25:54;;;;;;;6.05;2.65;;;;;;;11.95;35.81;96685.00;5110329;28;20068;-67
2021/04/03 08:28:21;;;;;;;4.57;2.45;;;;;;;11.35;37.10;96682.88;5108951;28;20084;-66
2021/04/03 08:30:47;;;;;;;9.30;2.50;;;;;;;10.67;38.43;96695.81;5110642;28;20047;-67
2021/04/03 08:33:16;;;;;;;6.07;2.80;;;;;;;10.28;40.29;96699.19;5109028;28;20042;-67
2021/04/03 08:35:43;;;;;;;7.88;2.95;;;;;;;9.84;42.45;96706.91;5110335;28;20426;-66
2021/04/03 08:38:11;;;;;;;7.78;2.78;;;;;;;9.58;40.91;96703.94;5109367;28;20044;-67
2021/04/03 08:40:37;;;;;;;4.97;2.75;;;;;;;9.39;41.28;96701.28;5109972;28;20043;-66
2021/04/03 08:43:04;;;;;;;7.07;3.38;;;;;;;9.28;44.83;96699.09;5109504;28;20517;-67
2021/04/03 08:45:35;;;;;;;7.88;2.80;;;;;;;9.76;43.10;96698.66;5109389;28;20043;-66
2021/04/03 08:48:01;;;;;;;5.72;3.30;;;;;;;11.23;42.57;96695.19;5110555;28;20122;-66
2021/04/03 08:50:27;;;;;;;6.20;2.50;;;;;;;12.34;36.78;96684.09;5108904;28;20040;-67
2021/04/03 08:53:01;;;;;;;8.73;2.65;;;;;;;13.26;34.33;96689.31;5111709;28;20039;-67
2021/04/03 08:55:28;;;;;;;4.38;2.17;;;;;;;13.21;33.24;96690.28;5112648;28;20036;-67
2021/04/03 08:57:55;;;;;;;5.70;2.45;;;;;;;12.43;34.97;96697.75;5113870;28;20040;-66
2021/04/03 09:00:23;;;;;;;5.85;2.60;;;;;;;11.94;34.90;96702.50;5112731;28;20108;-66
2021/04/03 09:02:52;;;;;;;5.88;2.53;;;;;;;11.36;37.64;96707.09;5113236;28;20040;-67
2021/04/03 09:05:19;;;;;;;4.93;2.28;;;;;;;10.88;37.68;96713.25;5113159;28;20058;-67
2021/04/03 09:07:45;;;;;;;8.95;2.78;;;;;;;10.38;38.45;96709.84;5112477;28;20044;-67
2021/04/03 09:10:14;;;;;;;4.75;2.33;;;;;;;9.84;38.17;96717.00;5113441;28;20043;-67
2021/04/03 09:12:41;;;;;;;6.47;2.25;;;;;;;9.34;39.35;96709.56;5112746;28;20043;-67
2021/04/03 09:15:08;;;;;;;6.93;2.25;;;;;;;9.30;41.46;96708.56;5113337;28;20131;-67
2021/04/03 09:17:46;;;;;;;6.95;2.15;;;;;;;9.27;40.80;96711.88;5112425;28;20096;-67
2021/04/03 09:20:16;;;;;;;11.20;2.47;;;;;;;9.24;40.41;96707.03;5112618;28;20044;-66
2021/04/03 09:22:44;;;;;;;4.88;2.65;;;;;;;9.50;41.25;96715.53;5112804;28;20063;-66
2021/04/03 09:25:11;;;;;;;5.82;2.40;;;;;;;9.62;41.52;96713.09;5112147;28;20044;-67
2021/04/03 09:27:37;;;;;;;4.85;2.10;;;;;;;9.76;40.17;96717.69;5113221;28;20113;-67
2021/04/03 09:30:05;;;;;;;6.55;2.00;;;;;;;9.82;39.93;96720.03;5111957;28;20054;-67
2021/04/03 09:32:43;;;;;;;3.45;1.60;;;;;;;9.93;39.19;96721.44;5113269;28;20427;-67
2021/04/03 09:35:12;;;;;;;4.35;1.70;;;;;;;10.28;37.64;96727.22;5111501;28;20552;-67
2021/04/03 09:37:38;;;;;;;4.68;1.67;;;;;;;10.52;37.66;96726.94;5113228;28;20054;-68
2021/04/03 09:40:06;;;;;;;5.50;2.50;;;;;;;10.58;39.03;96727.63;5111626;28;20039;-68
2021/04/03 09:42:33;;;;;;;8.30;2.10;;;;;;;10.64;38.84;96735.34;5112664;28;20100;-66
2021/04/03 09:45:03;;;;;;;3.65;1.90;;;;;;;10.41;38.84;96731.81;5112289;28;20047;-67
2021/04/03 09:47:29;;;;;;;3.78;1.90;;;;;;;10.17;38.11;96732.03;5112260;28;20375;-67
2021/04/03 09:49:56;;;;;;;2.38;1.20;;;;;;;10.10;37.88;96739.81;5112692;28;20043;-67
2021/04/03 09:52:23;;;;;;;5.88;1.27;;;;;;;10.06;36.94;96738.03;5111362;28;20074;-67
2021/04/03 09:54:49;;;;;;;2.67;1.33;;;;;;;9.56;37.11;96738.78;5113122;28;20043;-67
2021/04/03 09:57:16;;;;;;;3.67;1.90;;;;;;;9.43;39.43;96734.13;5111011;28;20127;-67
2021/04/03 09:59:43;;;;;;;6.50;1.80;;;;;;;9.23;40.75;96745.38;5112864;28;20230;-67
2021/04/03 10:02:11;;;;;;;4.47;1.88;;;;;;;9.21;40.36;96737.53;5111399;28;20036;-67
2021/04/03 10:04:37;;;;;;;4.47;2.17;;;;;;;9.13;39.50;96746.34;5111860;28;20050;-67
2021/04/03 10:07:05;;;;;;;5.95;1.75;;;;;;;9.13;41.12;96747.19;5111331;28;20040;-67
2021/04/03 10:09:31;;;;;;;5.60;1.73;;;;;;;9.32;42.12;96743.56;5111996;28;20039;-67
2021/04/03 10:11:58;;;;;;;4.45;1.80;;;;;;;9.47;41.78;96746.00;5112088;28;20414;-67
2021/04/03 10:14:25;;;;;;;5.22;2.17;;;;;;;9.56;41.44;96749.66;5111127;28;20490;-67
2021/04/03 10:16:51;;;;;;;5.03;1.90;;;;;;;9.65;41.10;96758.69;5112349;28;20051;-67
2021/04/03 10:19:17;;;;;;;3.53;1.90;;;;;;;9.70;39.54;96754.28;5110894;28;20032;-67
2021/04/03 10:21:43;;;;;;;4.47;2.05;;;;;;;9.79;40.88;96752.47;5112493;28;20047;-67
2021/04/03 10:24:11;;;;;;;5.85;2.00;;;;;;;9.89;39.80;96753.06;5110692;28;20051;-68
2021/04/03 10:26:37;;;;;;;4.68;2.05;;;;;;;10.03;40.79;96761.22;5111751;28;20044;-68
2021/04/03 10:29:03;;;;;;;5.95;2.38;;;;;;;10.10;39.70;96760.78;5090821;28;20044;-68
2021/04/03 10:31:29;;;;;;;8.40;2.30;;;;;;;10.09;39.16;96762.72;5091484;28;20048;-67
2021/04/03 10:33:55;;;;;;;8.07;2.03;;;;;;;10.14;40.02;96759.88;5091010;28;20040;-67
2021/04/03 10:36:21;;;;;;;3.53;1.90;;;;;;;10.18;39.24;96760.91;5090327;28;20070;-67
2021/04/03 10:38:47;;;;;;;5.45;2.38;;;;;;;10.27;39.53;96749.31;5091494;28;20109;-67
2021/04/03 10:41:15;;;;;;;5.32;2.63;;;;;;;10.36;40.58;96750.19;5090215;28;20491;-67
2021/04/03 10:43:42;;;;;;;6.10;2.72;;;;;;;10.17;40.30;96748.38;5091392;28;20051;-67
2021/04/03 10:46:08;;;;;;;4.68;2.40;;;;;;;10.14;40.93;96748.19;5089905;28;20040;-67
2021/04/03 10:48:34;;;;;;;8.85;2.70;;;;;;;10.22;40.89;96754.81;5091534;28;20047;-67
2021/04/03 10:51:00;;;;;;;6.63;2.65;;;;;;;10.17;41.94;96756.53;5102526;28;20506;-67
2021/04/03 10:53:26;;;;;;;9.13;3.03;;;;;;;10.08;41.85;96755.66;5110098;28;20050;-68
2021/04/03 10:55:52;;;;;;;9.43;2.95;;;;;;;10.14;41.18;96749.00;5110916;28;20179;-67
2021/04/03 10:58:19;;;;;;;7.05;2.85;;;;;;;9.88;40.20;96754.19;5096775;28;20043;-68
2021/04/03 11:00:45;;;;;;;7.13;2.38;;;;;;;10.04;40.42;96754.66;5090697;28;20051;-68
2021/04/03 11:03:11;;;;;;;5.43;2.40;;;;;;;10.20;40.69;96753.22;5089937;28;20043;-67
2021/04/03 11:05:37;;;;;;;6.25;2.40;;;;;;;10.09;38.72;96751.84;5090901;28;20040;-67
2021/04/03 11:08:04;;;;;;;3.75;1.67;;;;;;;9.71;38.97;96755.88;5089512;28;20040;-67
2021/04/03 11:10:30;;;;;;;6.55;1.90;;;;;;;9.67;39.47;96756.50;5091337;28;20047;-68
2021/04/03 11:12:57;;;;;;;6.07;2.25;;;;;;;9.61;40.53;96748.75;5090001;28;20048;-67
2021/04/03 11:15:24;;;;;;;5.50;2.30;;;;;;;9.42;41.11;96754.25;5090506;28;20036;-67
2021/04/03 11:17:51;;;;;;;7.43;2.95;;;;;;;9.25;42.06;96748.63;5089628;28;20068;-67
2021/04/03 11:20:18;;;;;;;6.35;2.45;;;;;;;9.04;41.85;96759.03;5096537;28;20476;-68
2021/04/03 11:22:44;;;;;;;6.60;2.50;;;;;;;8.90;43.01;96758.97;5109712;28;20126;-67
2021/04/03 11:25:10;;;;;;;11.75;2.85;;;;;;;8.73;43.30;96754.09;5110014;28;20580;-67
2021/04/03 11:27:37;;;;;;;5.53;2.45;;;;;;;8.75;42.29;96751.09;5110879;28;20043;-67
2021/04/03 11:30:13;;;;;;;6.70;2.85;;;;;;;8.81;42.86;96749.91;5109835;28;20038;-68
2021/04/03 11:32:44;;;;;;;5.45;2.28;;;;;;;8.80;42.66;96759.16;5111357;28;20048;-67
2021/04/03 11:35:11;;;;;;;5.20;2.10;;;;;;;8.79;43.05;96752.91;5109394;28;20036;-67
2021/04/03 11:37:37;;;;;;;5.05;2.85;;;;;;;8.87;46.57;96754.97;5111041;28;20040;-67
2021/04/03 11:40:06;;;;;;;7.30;2.85;;;;;;;8.78;44.11;96755.94;5109501;28;20105;-67
2021/04/03 11:42:32;;;;;;;4.93;2.58;;;;;;;8.74;43.74;96760.34;5110773;28;20044;-67